Terminal Aerodrome Forecast
Issued by NWS

Home | Current Version | Previous Version | Graphics & Text | Print | Product List | Glossary On
Versions: 1 2 3 4 5 6 7 8 9 10 11 12 13 14 15 16 17 18 19 20 21 22 23 24 25 26
000
FTUS43 KPAH 061235 CCB
TAFCGI
TAF COR
KCGI 061235Z 0613/0712 00000KT 1/4SM FZFG VV001
     FM061400 VRB03KT 4SM BR SCT001
     FM061600 20008KT P6SM SCT250
     FM070000 20003KT P6SM BKN250=

USA.gov is the U.S. government's official web portal to all federal, state and local government web resources and services.